< < Back
Terminal Aerodrome Forecast


Current Version              Previous Versions:   1  2  3  4  5  6  7  8  9  

Terminal Aerodrome Forecast

044
FTUS42 KFFC 012000 AAA
TAFATL
TAF AMD
KATL 012000Z 0120/0224 29008KT P6SM FEW060
     FM020000 28004KT P6SM FEW250
     FM021400 28005KT P6SM FEW040
     FM021800 26008KT P6SM SCT060=

Latest METAR

026
SAUS70 KWBC 020300 RRC
MTRATL
METAR KATL 020252Z 28006KT 10SM FEW080 28/15 A3002 RMK AO2 SLP153
T02830150 53010


USA.gov is the U.S. government's official web portal to all federal, state and local government web resources and services.